Time;durP1;ratioP1;P1;durP2;ratioP2;P2;SDS_P1;SDS_P2;PMS_P1;PMS_P2;Temp;Humidity;BMP_temperature;BMP_pressure;BME280_temperature;BME280_humidity;BME280_pressure;Samples;Min_cycle;Max_cycle;Signal;HPM_P1;HPM_P2
2021/03/26 00:02:06;;;;;;;40.30;19.00;;;;;;;3.33;37.17;99265.39;1655553;87;21186;-61
2021/03/26 00:04:34;;;;;;;30.82;16.50;;;;;;;3.26;37.50;99260.03;1655665;87;21305;-61
2021/03/26 00:07:02;;;;;;;35.17;16.60;;;;;;;3.21;37.22;99264.05;1655753;86;21320;-61
2021/03/26 00:09:34;;;;;;;32.50;16.77;;;;;;;3.20;37.32;99257.19;1655639;86;21182;-61
2021/03/26 00:12:09;;;;;;;33.90;16.35;;;;;;;3.21;37.39;99265.73;1655408;86;21179;-61
2021/03/26 00:14:39;;;;;;;36.23;17.10;;;;;;;3.23;37.34;99259.00;1655664;87;21353;-64
2021/03/26 00:17:07;;;;;;;34.88;16.90;;;;;;;3.24;37.47;99259.08;1655468;86;21352;-63
2021/03/26 00:19:36;;;;;;;32.20;15.85;;;;;;;3.25;37.36;99260.81;1655385;86;21182;-62
2021/03/26 00:22:04;;;;;;;28.92;14.60;;;;;;;3.29;37.35;99263.52;1655450;87;21191;-63
2021/03/26 00:24:32;;;;;;;31.10;15.10;;;;;;;3.32;37.33;99264.52;1655370;86;21337;-63
2021/03/26 00:27:01;;;;;;;27.67;13.62;;;;;;;3.36;37.29;99260.41;1655368;87;21186;-62
2021/03/26 00:29:30;;;;;;;31.30;15.50;;;;;;;3.41;37.24;99262.77;1655323;87;21328;-63
2021/03/26 00:31:58;;;;;;;32.30;16.65;;;;;;;3.40;37.29;99260.63;1655593;87;21352;-62
2021/03/26 00:34:27;;;;;;;32.17;17.05;;;;;;;3.40;37.32;99266.13;1655607;86;21332;-63
2021/03/26 00:36:57;;;;;;;30.35;14.90;;;;;;;3.37;37.39;99260.91;1655386;87;21199;-62
2021/03/26 00:39:25;;;;;;;31.57;16.17;;;;;;;3.34;37.38;99272.25;1655471;87;21178;-62
2021/03/26 00:41:53;;;;;;;32.08;14.43;;;;;;;3.31;37.32;99265.72;1655528;87;21175;-62
2021/03/26 00:44:22;;;;;;;33.08;17.02;;;;;;;3.29;37.34;99269.90;1655552;86;21325;-63
2021/03/26 00:46:50;;;;;;;32.00;16.00;;;;;;;3.24;37.44;99257.80;1655344;87;21174;-62
2021/03/26 00:49:18;;;;;;;29.87;15.95;;;;;;;3.19;37.50;99258.00;1655372;86;21162;-62
2021/03/26 00:51:47;;;;;;;33.00;15.48;;;;;;;3.12;37.61;99261.08;1659877;85;21352;-64
2021/03/26 00:54:17;;;;;;;36.73;18.67;;;;;;;3.05;37.85;99270.52;1666842;86;21207;-64
2021/03/26 00:56:46;;;;;;;33.27;17.20;;;;;;;2.98;38.28;99255.36;1667388;86;21179;-62
2021/03/26 00:59:16;;;;;;;39.27;18.30;;;;;;;2.90;38.38;99263.44;1666917;86;21629;-60
2021/03/26 01:01:46;;;;;;;38.28;18.25;;;;;;;2.83;38.68;99268.27;1666912;86;21151;-61
2021/03/26 01:04:15;;;;;;;31.00;16.45;;;;;;;2.78;38.72;99267.19;1667011;86;21203;-61
2021/03/26 01:06:44;;;;;;;33.83;17.80;;;;;;;2.74;38.77;99266.56;1666831;86;21183;-61
2021/03/26 01:09:13;;;;;;;37.08;18.62;;;;;;;2.70;38.92;99268.51;1666794;86;21186;-62
2021/03/26 01:11:43;;;;;;;36.65;17.90;;;;;;;2.67;39.02;99272.19;1666777;86;21164;-62
2021/03/26 01:14:17;;;;;;;38.25;17.15;;;;;;;2.63;39.15;99268.15;1687254;85;21145;-62
2021/03/26 01:16:48;;;;;;;31.90;17.02;;;;;;;2.57;39.34;99272.53;1689130;85;21122;-61
2021/03/26 01:19:17;;;;;;;35.28;17.50;;;;;;;2.53;39.25;99268.11;1689045;85;21201;-61
2021/03/26 01:21:46;;;;;;;27.67;14.73;;;;;;;2.50;39.37;99269.24;1667102;86;21344;-61
2021/03/26 01:24:17;;;;;;;30.05;15.20;;;;;;;2.48;39.26;99274.66;1667095;86;21336;-62
2021/03/26 01:26:47;;;;;;;31.93;16.20;;;;;;;2.47;39.43;99270.34;1666737;86;21641;-60
2021/03/26 01:29:23;;;;;;;29.70;16.00;;;;;;;2.45;39.53;99272.84;1666852;86;21136;-62
2021/03/26 01:32:03;;;;;;;24.43;13.28;;;;;;;2.41;39.67;99277.30;1666783;86;21619;-65
2021/03/26 01:34:32;;;;;;;26.68;14.98;;;;;;;2.34;39.66;99280.34;1638570;86;21308;-63
2021/03/26 01:37:04;;;;;;;31.27;14.83;;;;;;;2.31;39.95;99279.80;1689222;85;21184;-64
2021/03/26 01:39:34;;;;;;;;;;;;;;;2.29;39.94;99275.05;1690030;85;21746;-60
2021/03/26 01:42:01;;;;;;;30.35;14.60;;;;;;;2.31;40.06;99275.11;1667106;86;20145;-62
2021/03/26 01:44:29;;;;;;;26.75;13.60;;;;;;;2.31;40.06;99278.52;1666997;86;21309;-61
2021/03/26 01:47:03;;;;;;;28.50;14.13;;;;;;;2.33;40.00;99279.47;1666257;86;21155;-61
2021/03/26 01:49:30;;;;;;;28.17;13.98;;;;;;;2.37;39.93;99276.29;1666949;86;21178;-61
2021/03/26 01:52:01;;;;;;;25.57;12.25;;;;;;;2.45;39.84;99280.89;1662776;85;21730;-60
2021/03/26 01:54:30;;;;;;;30.82;14.07;;;;;;;2.49;39.71;99275.12;1655525;87;21170;-60
2021/03/26 01:57:00;;;;;;;27.47;13.80;;;;;;;2.52;39.78;99281.25;1637252;87;21309;-60
2021/03/26 01:59:34;;;;;;;27.58;12.95;;;;;;;2.51;39.86;99278.62;1649193;87;21174;-63
2021/03/26 02:02:12;;;;;;;24.67;11.93;;;;;;;2.53;39.80;99282.12;1655540;86;21154;-62
2021/03/26 02:05:00;;;;;;;25.90;12.75;;;;;;;2.54;39.79;99276.20;1655521;86;21581;-61
2021/03/26 02:07:38;;;;;;;27.05;12.25;;;;;;;2.57;39.80;99283.98;1641673;87;21166;-61
2021/03/26 02:10:10;;;;;;;20.77;10.70;;;;;;;2.61;39.75;99278.25;1655406;87;21203;-61
2021/03/26 02:12:40;;;;;;;27.55;12.47;;;;;;;2.68;39.71;99284.12;1655776;87;21333;-63
2021/03/26 02:15:21;;;;;;;26.45;11.95;;;;;;;2.74;39.72;99283.12;1655506;86;21155;-62
2021/03/26 02:17:50;;;;;;;18.23;9.35;;;;;;;2.78;39.76;99287.58;1655652;86;21231;-62
2021/03/26 02:20:38;;;;;;;20.23;9.85;;;;;;;2.83;39.64;99284.84;1655435;86;21191;-63
2021/03/26 02:23:14;;;;;;;19.62;9.90;;;;;;;2.91;39.41;99289.02;1655142;86;21174;-62
2021/03/26 02:25:44;;;;;;;20.25;10.63;;;;;;;2.99;39.22;99284.27;1653835;86;21169;-61
2021/03/26 02:28:15;;;;;;;23.47;10.95;;;;;;;3.01;39.25;99289.91;1655436;87;21178;-63
2021/03/26 02:30:51;;;;;;;19.62;10.13;;;;;;;3.03;39.13;99291.27;1635778;87;21316;-64
2021/03/26 02:33:21;;;;;;;20.10;11.35;;;;;;;3.07;39.12;99290.59;1655797;86;21597;-64
2021/03/26 02:36:18;;;;;;;24.12;10.70;;;;;;;3.10;39.13;99294.55;1655579;86;21155;-62
2021/03/26 02:38:59;;;;;;;23.25;11.05;;;;;;;3.11;39.21;99289.94;1655673;86;21166;-61
2021/03/26 02:41:39;;;;;;;19.85;10.28;;;;;;;3.10;39.31;99291.13;1655526;86;21304;-62
2021/03/26 02:44:36;;;;;;;21.10;12.65;;;;;;;3.09;39.45;99294.50;1655149;86;21194;-62
2021/03/26 02:47:29;;;;;;;28.90;14.43;;;;;;;3.09;39.61;99290.67;1655449;86;21190;-63
2021/03/26 02:50:19;;;;;;;30.17;14.63;;;;;;;3.03;40.04;99293.82;1653202;86;21309;-61
2021/03/26 02:53:08;;;;;;;30.77;15.05;;;;;;;2.93;40.48;99291.65;1661853;85;21166;-59
2021/03/26 02:55:45;;;;;;;37.40;17.82;;;;;;;2.81;40.86;99289.39;1666880;86;21179;-61
2021/03/26 02:58:38;;;;;;;52.35;23.60;;;;;;;2.70;41.43;99296.95;1666626;86;21624;-61
2021/03/26 03:01:13;;;;;;;56.60;22.15;;;;;;;2.55;42.31;99300.91;1665312;86;21200;-61
2021/03/26 03:03:42;;;;;;;49.48;23.45;;;;;;;2.29;43.19;99299.24;1666896;86;21218;-61
2021/03/26 03:06:30;;;;;;;45.25;21.00;;;;;;;2.05;44.16;99305.66;1667153;86;21178;-61
2021/03/26 03:09:17;;;;;;;45.70;22.40;;;;;;;1.78;45.02;99292.40;1666913;86;21325;-62
2021/03/26 03:11:56;;;;;;;46.90;21.90;;;;;;;1.50;46.02;99303.70;1638768;86;21321;-64
2021/03/26 03:14:35;;;;;;;42.35;21.90;;;;;;;1.32;46.54;99315.45;1655294;86;21313;-62
2021/03/26 03:17:29;;;;;;;46.85;22.48;;;;;;;1.16;47.42;99309.95;1688936;85;21299;-63
2021/03/26 03:20:11;;;;;;;41.13;21.02;;;;;;;1.01;47.87;99303.64;1689378;85;21614;-62
2021/03/26 03:23:09;;;;;;;41.30;19.70;;;;;;;0.90;48.76;99311.09;1689393;85;21531;-62
2021/03/26 03:25:40;;;;;;;39.38;18.40;;;;;;;0.85;49.28;99307.02;1685724;83;21603;-61
2021/03/26 03:28:22;;;;;;;37.93;19.05;;;;;;;0.81;49.66;99312.31;1666869;86;21337;-60
2021/03/26 03:31:03;;;;;;;38.90;18.07;;;;;;;0.80;50.11;99314.79;1665421;86;21589;-60
2021/03/26 03:34:26;;;;;;;38.02;16.40;;;;;;;0.77;50.86;99313.36;1666976;86;21178;-61
2021/03/26 03:37:07;;;;;;;35.17;16.30;;;;;;;0.77;51.28;99319.70;1666947;86;21136;-60
2021/03/26 03:39:50;;;;;;;35.73;17.50;;;;;;;0.77;52.43;99324.79;1666854;86;21598;-61
2021/03/26 03:42:32;;;;;;;32.23;17.35;;;;;;;0.74;52.32;99324.59;1667231;86;21205;-61
2021/03/26 03:45:25;;;;;;;30.05;14.98;;;;;;;0.74;52.80;99327.13;1665340;86;21208;-61
2021/03/26 03:48:19;;;;;;;32.80;16.50;;;;;;;0.75;53.33;99328.91;1689181;85;21173;-62
2021/03/26 03:50:54;;;;;;;33.18;16.55;;;;;;;0.73;53.90;99328.80;1689102;85;21643;-62
2021/03/26 03:53:37;;;;;;;31.70;16.05;;;;;;;0.69;54.37;99330.71;1689240;84;21746;-62
2021/03/26 03:56:25;;;;;;;33.92;16.70;;;;;;;0.67;54.98;99328.88;1663823;86;21324;-62
2021/03/26 03:58:58;;;;;;;33.83;18.23;;;;;;;0.65;55.49;99335.12;1667059;86;21330;-62
2021/03/26 04:01:35;;;;;;;33.70;16.07;;;;;;;0.63;55.74;99322.33;1639206;85;21623;-61
2021/03/26 04:04:11;;;;;;;34.63;16.55;;;;;;;0.62;57.00;99319.33;1667069;86;21198;-60
2021/03/26 04:06:58;;;;;;;27.77;15.78;;;;;;;0.60;57.08;99314.55;1666759;86;21171;-62
2021/03/26 04:09:40;;;;;;;31.90;17.05;;;;;;;0.60;57.20;99318.36;1657616;84;21304;-60
2021/03/26 04:12:13;;;;;;;29.63;15.95;;;;;;;0.63;57.61;99324.00;1689475;85;21181;-61
2021/03/26 04:14:57;;;;;;;32.10;16.95;;;;;;;0.64;57.82;99324.09;1689177;85;21268;-62
2021/03/26 04:17:33;;;;;;;36.25;18.60;;;;;;;0.69;57.96;99327.27;1663008;85;21183;-62
2021/03/26 04:20:09;;;;;;;36.85;18.67;;;;;;;0.71;58.36;99329.51;1686877;85;21767;-61
2021/03/26 04:22:42;;;;;;;33.10;17.25;;;;;;;0.73;58.54;99331.74;1689066;85;21189;-63
2021/03/26 04:25:23;;;;;;;32.08;18.52;;;;;;;0.74;58.62;99336.02;1688898;85;21607;-62
2021/03/26 04:28:15;;;;;;;33.98;17.07;;;;;;;0.79;58.98;99332.97;1689053;85;21198;-62
2021/03/26 04:30:59;;;;;;;39.80;19.17;;;;;;;0.83;59.42;99335.27;1685708;85;21165;-62
2021/03/26 04:33:29;;;;;;;41.50;23.47;;;;;;;0.90;59.78;99337.77;1686925;85;21193;-63
2021/03/26 04:36:01;;;;;;;53.58;28.92;;;;;;;0.95;60.16;99335.95;1666866;86;21215;-63
2021/03/26 04:38:48;;;;;;;70.42;40.08;;;;;;;1.00;60.57;99335.81;1637844;86;21199;-64
2021/03/26 04:41:50;;;;;;;87.50;48.78;;;;;;;1.12;60.63;99337.25;1874223;75;22622;-63
2021/03/26 04:44:26;;;;;;;81.20;45.80;;;;;;;1.28;60.63;99347.47;1791653;80;21141;-63
2021/03/26 04:47:07;;;;;;;51.53;26.25;;;;;;;2.42;59.13;99348.20;1807690;78;21086;-61
2021/03/26 04:49:48;;;;;;;37.58;20.35;;;;;;;3.96;55.59;99350.69;1774893;80;21172;-61
2021/03/26 04:52:43;;;;;;;42.13;22.60;;;;;;;5.28;52.53;99355.19;1781087;80;21216;-61
2021/03/26 04:55:23;;;;;;;37.85;18.90;;;;;;;6.47;49.54;99353.11;1802117;78;21145;-62
2021/03/26 04:58:20;;;;;;;42.08;25.35;;;;;;;7.50;46.40;99360.17;1773445;80;21243;-62
2021/03/26 05:01:13;;;;;;;36.20;23.45;;;;;;;8.17;44.70;99361.64;1797084;78;21145;-62
2021/03/26 05:03:50;;;;;;;31.95;17.65;;;;;;;8.78;43.48;99371.39;1807243;78;21276;-63
2021/03/26 05:06:28;;;;;;;31.33;17.32;;;;;;;9.19;42.49;99367.22;1799407;78;21145;-61
2021/03/26 05:09:03;;;;;;;30.32;17.02;;;;;;;9.74;41.52;99360.70;1793611;80;21123;-61
2021/03/26 05:11:41;;;;;;;26.75;16.80;;;;;;;10.19;40.72;99368.87;1795332;78;21120;-62
2021/03/26 05:14:19;;;;;;;27.05;16.15;;;;;;;10.90;39.35;99368.85;1790407;79;21132;-61
2021/03/26 05:16:55;;;;;;;26.60;15.88;;;;;;;11.34;38.67;99369.94;1784684;79;21148;-62
2021/03/26 05:19:51;;;;;;;28.35;15.98;;;;;;;11.94;37.20;99370.34;1743450;79;21183;-61
2021/03/26 05:22:37;;;;;;;26.75;16.10;;;;;;;12.16;36.71;99379.23;1794974;78;21135;-63
2021/03/26 05:25:36;;;;;;;28.25;16.65;;;;;;;12.49;36.26;99374.38;1779455;78;21274;-60
2021/03/26 05:28:17;;;;;;;24.00;15.08;;;;;;;12.99;35.46;99382.59;1790706;79;21389;-63
2021/03/26 05:30:46;;;;;;;28.75;15.53;;;;;;;13.53;34.45;99380.39;1794574;78;21157;-61
2021/03/26 05:33:24;;;;;;;23.73;15.90;;;;;;;13.98;33.59;99387.11;1793359;79;21687;-64
2021/03/26 05:36:17;;;;;;;26.17;16.48;;;;;;;14.36;33.12;99388.97;1801994;78;21744;-64
2021/03/26 05:39:11;;;;;;;26.87;16.25;;;;;;;15.00;32.24;99385.61;1796078;79;21168;-62
2021/03/26 05:42:07;;;;;;;24.45;15.43;;;;;;;15.96;31.11;99396.29;1751556;78;21138;-64
2021/03/26 05:45:11;;;;;;;28.30;16.60;;;;;;;16.58;29.68;99399.44;1823637;78;21146;-63
2021/03/26 05:48:20;;;;;;;23.65;15.63;;;;;;;16.95;29.27;99407.90;1800030;78;21674;-66
2021/03/26 05:51:20;;;;;;;26.30;15.43;;;;;;;17.41;28.67;99411.86;1777838;80;21295;-66
2021/03/26 05:54:20;;;;;;;25.92;16.82;;;;;;;17.91;27.64;99410.47;1769682;80;21303;-65
2021/03/26 05:57:32;;;;;;;28.62;17.00;;;;;;;18.41;26.94;99419.42;1786149;80;21154;-64
2021/03/26 06:00:48;;;;;;;24.87;16.37;;;;;;;19.22;26.47;99419.53;1794577;80;21182;-64
2021/03/26 06:04:03;;;;;;;29.77;17.62;;;;;;;20.78;24.45;99431.77;1812850;78;21152;-63
2021/03/26 06:07:04;;;;;;;24.63;16.45;;;;;;;21.68;23.39;99436.57;1827059;78;21114;-65
2021/03/26 06:10:02;;;;;;;24.12;16.90;;;;;;;21.68;23.39;99436.57;1828514;78;21161;-64
2021/03/26 06:13:29;;;;;;;23.45;17.17;;;;;;;22.48;22.82;99434.33;1816416;78;21248;-65
2021/03/26 06:16:30;;;;;;;30.37;17.57;;;;;;;22.83;21.96;99442.45;1715276;81;21259;-63
2021/03/26 06:19:29;;;;;;;30.32;19.05;;;;;;;22.78;21.68;99438.25;1739094;81;21201;-63
2021/03/26 06:22:48;;;;;;;27.35;19.15;;;;;;;22.61;21.74;99436.13;1745180;81;21186;-65
2021/03/26 06:25:57;;;;;;;30.37;17.75;;;;;;;22.50;21.89;99434.69;1758620;80;21359;-63
2021/03/26 06:28:54;;;;;;;30.62;18.75;;;;;;;23.34;21.27;99442.16;1780826;80;21621;-64
2021/03/26 06:31:58;;;;;;;27.40;18.02;;;;;;;24.16;20.26;99446.77;1782283;79;21138;-65
2021/03/26 06:35:16;;;;;;;20.77;16.12;;;;;;;23.88;20.65;99456.99;1793514;80;21624;-64
2021/03/26 06:38:25;;;;;;;23.12;15.65;;;;;;;24.22;20.22;99458.40;1775293;79;21189;-63
2021/03/26 06:41:30;;;;;;;26.15;15.60;;;;;;;23.96;20.32;99456.72;1763822;80;21670;-64
2021/03/26 06:44:40;;;;;;;22.02;15.40;;;;;;;24.44;20.04;99458.00;1778273;80;21166;-64
2021/03/26 06:47:43;;;;;;;25.55;16.57;;;;;;;25.31;19.41;99461.65;1778916;80;21176;-64
2021/03/26 06:50:35;;;;;;;19.45;15.28;;;;;;;24.87;19.36;99459.48;1765883;79;21164;-64
2021/03/26 06:53:28;;;;;;;22.15;14.83;;;;;;;24.51;19.63;99461.78;1808986;78;21170;-63
2021/03/26 06:56:21;;;;;;;23.52;15.70;;;;;;;24.75;19.46;99459.48;1799761;78;21275;-64
2021/03/26 06:59:26;;;;;;;22.82;14.83;;;;;;;25.27;19.10;99466.68;1800971;78;21137;-67
2021/03/26 07:02:29;;;;;;;20.92;14.80;;;;;;;25.41;19.02;99462.59;1819463;78;21182;-65
2021/03/26 07:05:21;;;;;;;20.90;14.40;;;;;;;25.44;18.70;99467.75;1819896;78;21280;-64
2021/03/26 07:08:24;;;;;;;;;;;;;;;25.18;18.88;99473.65;1813216;78;21133;-65
2021/03/26 07:11:32;;;;;;;23.38;14.53;;;;;;;24.85;19.04;99467.44;1824584;78;20533;-65
2021/03/26 07:14:39;;;;;;;23.83;15.80;;;;;;;25.22;19.09;99472.61;1819547;78;21217;-65
2021/03/26 07:17:47;;;;;;;26.35;16.80;;;;;;;25.29;18.98;99472.77;1827505;78;21303;-65
2021/03/26 07:20:47;;;;;;;27.10;17.30;;;;;;;25.48;18.83;99466.70;1814732;78;21164;-65
2021/03/26 07:23:49;;;;;;;25.80;15.93;;;;;;;26.40;18.26;99471.47;1806365;78;21141;-65
2021/03/26 07:26:37;;;;;;;22.80;14.80;;;;;;;27.16;17.51;99469.27;1807289;78;21169;-66
2021/03/26 07:29:50;;;;;;;24.30;15.38;;;;;;;26.28;17.89;99472.05;1810525;78;21205;-65
2021/03/26 07:32:46;;;;;;;20.57;15.18;;;;;;;26.10;18.19;99472.86;1800520;78;21157;-64
2021/03/26 07:35:33;;;;;;;23.12;15.83;;;;;;;26.25;18.18;99473.48;1823769;78;21106;-64
2021/03/26 07:38:22;;;;;;;22.50;15.95;;;;;;;25.92;18.35;99471.89;1825356;78;21106;-64
2021/03/26 07:41:24;;;;;;;22.35;15.83;;;;;;;26.40;18.05;99475.91;1817600;78;21132;-65
2021/03/26 07:44:24;;;;;;;23.27;14.75;;;;;;;26.22;18.32;99484.69;1826250;78;21118;-65
2021/03/26 07:47:45;;;;;;;19.90;13.20;;;;;;;25.92;18.52;99479.83;1807152;78;21145;-66
2021/03/26 07:50:43;;;;;;;19.45;14.05;;;;;;;25.68;18.77;99475.97;1796352;78;21299;-64
2021/03/26 07:53:29;;;;;;;23.25;13.70;;;;;;;26.06;18.70;99481.41;1804388;78;21256;-66
2021/03/26 07:56:22;;;;;;;16.95;13.50;;;;;;;26.25;18.45;99488.52;1822100;78;21648;-65
2021/03/26 07:59:46;;;;;;;19.45;13.85;;;;;;;26.03;18.75;99485.95;1796520;78;21322;-64
2021/03/26 08:03:04;;;;;;;21.23;14.53;;;;;;;26.72;18.37;99489.02;1818530;78;21173;-65
2021/03/26 08:05:52;;;;;;;18.75;13.53;;;;;;;27.31;18.10;99496.36;1804203;78;21122;-64
2021/03/26 08:08:41;;;;;;;20.60;13.72;;;;;;;27.20;17.96;99494.72;1790977;78;21129;-64
2021/03/26 08:11:18;;;;;;;20.43;13.20;;;;;;;26.25;18.62;99496.45;1811620;78;21173;-65
2021/03/26 08:14:23;;;;;;;18.82;13.40;;;;;;;25.77;19.09;99491.89;1796799;78;21192;-65
2021/03/26 08:17:09;;;;;;;17.48;13.32;;;;;;;25.17;19.60;99497.04;1825903;78;21308;-64
2021/03/26 08:20:01;;;;;;;19.02;13.72;;;;;;;24.31;20.36;99491.05;1800661;78;21161;-65
2021/03/26 08:22:58;;;;;;;24.92;12.73;;;;;;;23.91;20.84;99500.84;1805407;78;21156;-65
2021/03/26 08:25:48;;;;;;;32.30;14.05;;;;;;;23.53;21.25;99493.30;1817200;78;21147;-66
2021/03/26 08:28:33;;;;;;;19.65;13.08;;;;;;;23.29;21.58;99490.17;1800491;78;21279;-67
2021/03/26 08:31:42;;;;;;;15.68;12.10;;;;;;;24.00;20.99;99491.30;1870565;76;22169;-65
2021/03/26 08:34:25;;;;;;;17.20;13.05;;;;;;;23.82;20.78;99491.49;1760307;81;21207;-65
2021/03/26 08:37:17;;;;;;;18.77;12.90;;;;;;;23.67;21.07;99495.48;1747617;81;21158;-65
2021/03/26 08:40:03;;;;;;;18.07;11.05;;;;;;;24.05;20.83;99488.89;1760629;81;21105;-65
2021/03/26 08:42:41;;;;;;;15.90;10.63;;;;;;;24.67;20.09;99494.56;1776817;81;21589;-65
2021/03/26 08:45:23;;;;;;;16.42;11.45;;;;;;;24.30;19.82;99493.29;1760301;80;21157;-64
2021/03/26 08:48:14;;;;;;;20.35;10.75;;;;;;;23.49;20.62;99493.01;1777146;81;21147;-66
2021/03/26 08:51:20;;;;;;;16.82;12.28;;;;;;;23.26;21.05;99488.96;1760411;81;21283;-66
2021/03/26 08:53:53;;;;;;;15.35;10.88;;;;;;;22.59;21.59;99491.41;1777123;81;21301;-65
2021/03/26 08:56:51;;;;;;;17.20;10.88;;;;;;;22.26;21.84;99495.88;1760492;80;21153;-65
2021/03/26 08:59:48;;;;;;;15.63;10.10;;;;;;;21.52;22.37;99491.70;1777251;81;21212;-65
2021/03/26 09:02:43;;;;;;;14.18;9.13;;;;;;;20.89;23.21;99494.05;1759964;81;21287;-65
2021/03/26 09:05:23;;;;;;;12.20;8.13;;;;;;;20.23;23.07;99495.87;1760206;81;21137;-65
2021/03/26 09:08:10;;;;;;;15.48;9.30;;;;;;;19.07;23.97;99484.73;1760464;81;21117;-65
2021/03/26 09:11:11;;;;;;;16.37;8.50;;;;;;;18.00;25.29;99488.27;1760287;81;21145;-65
2021/03/26 09:14:00;;;;;;;14.93;8.40;;;;;;;17.30;26.27;99486.28;1759303;81;21299;-65
2021/03/26 09:16:56;;;;;;;13.22;9.13;;;;;;;16.49;27.26;99483.73;1749170;81;21153;-65
2021/03/26 09:20:01;;;;;;;14.33;9.65;;;;;;;15.90;28.21;99483.08;1759500;80;21283;-63
2021/03/26 09:23:08;;;;;;;17.87;8.88;;;;;;;15.29;29.22;99477.88;1751446;80;21161;-65
2021/03/26 09:26:32;;;;;;;13.28;8.23;;;;;;;14.71;29.87;99476.09;1870498;76;22164;-65
2021/03/26 09:29:10;;;;;;;13.70;7.42;;;;;;;14.28;29.93;99481.11;1736292;82;21189;-65
2021/03/26 09:31:55;;;;;;;18.67;7.50;;;;;;;13.90;30.58;99481.78;1766741;81;21291;-65
2021/03/26 09:34:33;;;;;;;14.30;7.60;;;;;;;13.53;30.61;99481.52;1768539;80;21118;-65
2021/03/26 09:37:22;;;;;;;11.93;7.50;;;;;;;13.09;30.93;99472.94;1777093;81;21138;-64
2021/03/26 09:39:56;;;;;;;15.38;7.70;;;;;;;12.50;31.61;99473.20;1756506;81;21165;-64
2021/03/26 09:42:53;;;;;;;14.38;7.17;;;;;;;11.99;32.67;99482.92;1777196;81;21562;-65
2021/03/26 09:45:47;;;;;;;14.85;7.58;;;;;;;11.77;33.24;99481.71;1760256;81;21130;-65
2021/03/26 09:48:23;;;;;;;11.97;7.50;;;;;;;11.60;33.55;99484.47;1776930;80;21317;-64
2021/03/26 09:51:27;;;;;;;14.40;7.78;;;;;;;11.48;33.98;99483.44;1759319;80;21615;-64
2021/03/26 09:54:34;;;;;;;;;;;;;;;;;;;;;
2021/03/26 09:58:37;;;;;;;;;;;;;;;;;;;;;
2021/03/26 10:02:18;;;;;;;10.58;6.80;;;;;;;11.49;34.26;99477.41;1911317;74;22260;-65
2021/03/26 10:49:55;;;;;;;13.25;7.08;;;;;;;11.85;31.64;99469.75;1877435;75;21183;-64
2021/03/26 10:52:40;;;;;;;14.97;7.67;;;;;;;11.90;31.73;99465.55;1788590;79;21689;-64
2021/03/26 10:55:28;;;;;;;16.00;7.17;;;;;;;11.90;31.73;99465.55;1804136;79;21301;-65
2021/03/26 10:58:24;;;;;;;15.03;8.93;;;;;;;11.86;32.48;99467.66;1859975;76;21287;-65
2021/03/26 11:01:14;;;;;;;15.05;8.55;;;;;;;11.93;32.83;99451.38;1782697;79;21110;-65
2021/03/26 11:03:50;;;;;;;16.45;9.43;;;;;;;11.98;33.12;99466.94;1781263;79;21276;-65
2021/03/26 11:06:44;;;;;;;12.85;8.58;;;;;;;12.11;33.30;99455.92;1786687;79;21141;-65
2021/03/26 11:09:23;;;;;;;15.15;9.10;;;;;;;12.15;32.67;99471.05;1795994;79;21274;-65
2021/03/26 11:12:09;;;;;;;15.13;7.90;;;;;;;12.27;32.68;99460.86;1854041;76;21086;-65
2021/03/26 11:14:46;;;;;;;9.43;5.28;;;;;;;12.36;32.59;99458.39;1866498;76;21236;-65
2021/03/26 11:17:33;;;;;;;8.55;4.37;;;;;;;12.41;32.97;99471.80;1783205;79;21127;-65
2021/03/26 11:20:41;;;;;;;9.25;3.85;;;;;;;12.41;33.25;99463.59;1889860;76;22139;-65
2021/03/26 11:23:17;;;;;;;6.83;3.40;;;;;;;12.25;33.51;99452.63;1861183;77;21142;-65
2021/03/26 11:26:05;;;;;;;6.22;3.47;;;;;;;11.97;33.68;99457.88;1861152;77;21126;-64
2021/03/26 11:28:45;;;;;;;6.95;3.50;;;;;;;11.80;34.29;99461.48;1791543;80;21589;-64
2021/03/26 11:31:37;;;;;;;7.58;3.70;;;;;;;11.80;34.47;99455.89;1824080;78;21280;-65
2021/03/26 11:34:37;;;;;;;6.83;3.55;;;;;;;11.84;34.56;99465.88;1773300;80;21122;-65
2021/03/26 11:37:16;;;;;;;9.18;3.00;;;;;;;11.94;34.53;99462.16;1791433;80;21133;-65
2021/03/26 11:39:59;;;;;;;5.80;2.90;;;;;;;12.09;34.31;99459.34;1791729;80;21169;-65
2021/03/26 11:42:42;;;;;;;7.75;2.62;;;;;;;12.14;34.06;99465.45;1791749;80;21146;-65
2021/03/26 11:45:29;;;;;;;6.53;2.90;;;;;;;12.13;34.00;99459.37;1791858;80;21154;-65
2021/03/26 11:48:11;;;;;;;8.25;3.58;;;;;;;12.17;33.96;99456.42;1791702;80;21277;-65
2021/03/26 11:50:51;;;;;;;8.20;3.17;;;;;;;12.22;34.07;99444.41;1791907;80;21324;-65
2021/03/26 11:53:30;;;;;;;9.03;3.30;;;;;;;12.29;33.74;99447.52;1791593;80;21308;-65
2021/03/26 11:56:24;;;;;;;7.17;3.77;;;;;;;12.38;33.78;99450.19;1791821;80;21304;-64
2021/03/26 11:59:44;;;;;;;9.05;3.25;;;;;;;12.44;33.34;99448.12;1791717;80;21196;-64
2021/03/26 12:02:43;;;;;;;10.85;5.33;;;;;;;12.48;33.57;99443.41;1791529;80;21289;-64
2021/03/26 12:05:32;;;;;;;8.10;4.95;;;;;;;12.43;33.73;99440.33;1791446;80;21284;-64
2021/03/26 12:08:22;;;;;;;7.62;4.30;;;;;;;12.49;33.75;99446.85;1787902;80;21734;-64
2021/03/26 12:11:00;;;;;;;12.00;5.30;;;;;;;12.54;33.57;99440.01;1765119;80;21150;-65
2021/03/26 12:13:44;;;;;;;11.85;5.33;;;;;;;12.59;33.61;99435.74;1791528;80;21158;-64
2021/03/26 12:16:29;;;;;;;7.45;4.25;;;;;;;12.68;33.60;99441.03;1754847;80;21189;-65
2021/03/26 12:19:05;;;;;;;7.05;3.80;;;;;;;12.80;33.55;99429.94;1787467;80;21588;-64
2021/03/26 12:21:42;;;;;;;6.67;3.65;;;;;;;12.94;33.59;99441.70;1855657;77;21146;-65
2021/03/26 12:24:32;;;;;;;10.75;4.65;;;;;;;13.04;33.46;99437.05;1855761;77;21287;-65
2021/03/26 12:27:12;;;;;;;10.75;3.77;;;;;;;13.05;33.49;99428.41;1855586;77;21083;-66
2021/03/26 12:29:54;;;;;;;6.42;3.50;;;;;;;13.10;33.59;99430.64;1855343;77;21248;-64
2021/03/26 12:32:46;;;;;;;7.62;3.62;;;;;;;13.19;33.52;99426.80;1854817;77;21174;-64
2021/03/26 12:35:38;;;;;;;11.28;4.90;;;;;;;13.20;33.47;99425.07;1854946;77;21149;-65
2021/03/26 12:38:22;;;;;;;8.63;3.60;;;;;;;13.31;33.52;99425.21;1855122;77;21130;-65
2021/03/26 12:41:03;;;;;;;6.50;3.83;;;;;;;13.35;33.33;99423.92;1854735;77;21672;-65
2021/03/26 12:43:37;;;;;;;9.65;4.47;;;;;;;13.47;33.34;99417.97;1782822;80;21150;-64
2021/03/26 12:46:19;;;;;;;11.43;4.30;;;;;;;13.53;33.16;99420.58;1854832;77;21130;-65
2021/03/26 12:49:04;;;;;;;9.95;4.10;;;;;;;13.52;33.15;99411.09;1855055;77;21256;-64
2021/03/26 12:51:40;;;;;;;6.70;3.25;;;;;;;13.54;33.16;99420.18;1782639;80;21133;-64
2021/03/26 12:54:42;;;;;;;8.40;3.50;;;;;;;13.62;33.31;99419.36;1854842;77;21122;-64
2021/03/26 12:57:28;;;;;;;12.25;3.42;;;;;;;13.78;33.00;99415.11;1852568;77;21162;-65
2021/03/26 13:00:07;;;;;;;7.05;4.33;;;;;;;13.89;32.91;99419.05;1840113;77;21126;-64
2021/03/26 13:02:42;;;;;;;8.65;3.62;;;;;;;13.78;32.85;99415.55;1817997;77;21272;-66
2021/03/26 13:05:28;;;;;;;9.10;3.87;;;;;;;13.64;33.21;99414.19;1782803;80;21704;-65
2021/03/26 13:08:20;;;;;;;8.08;3.80;;;;;;;13.56;33.49;99410.66;1854669;77;21118;-64
2021/03/26 13:10:57;;;;;;;7.97;4.25;;;;;;;13.40;33.79;99426.55;1855111;77;21118;-64
2021/03/26 13:13:56;;;;;;;6.97;3.85;;;;;;;13.36;33.95;99423.52;1854635;77;21248;-64
2021/03/26 13:16:46;;;;;;;9.60;4.22;;;;;;;13.36;34.20;99422.22;1782766;80;21154;-65
2021/03/26 13:19:26;;;;;;;8.78;4.40;;;;;;;13.24;34.44;99417.77;1847054;77;21149;-64
2021/03/26 13:22:21;;;;;;;8.30;4.40;;;;;;;13.08;34.73;99427.16;1847646;77;21277;-64
2021/03/26 13:24:59;;;;;;;7.05;3.85;;;;;;;13.05;34.83;99425.81;1846326;78;21499;-64
2021/03/26 13:27:42;;;;;;;8.13;4.42;;;;;;;12.97;35.03;99419.70;1845616;78;21119;-64
2021/03/26 13:30:16;;;;;;;10.50;4.42;;;;;;;12.93;35.16;99414.08;1845856;78;21151;-65
2021/03/26 13:33:04;;;;;;;7.17;4.10;;;;;;;12.86;35.45;99421.34;1845551;77;21261;-64
2021/03/26 13:35:48;;;;;;;7.65;4.35;;;;;;;12.77;35.45;99412.64;1774603;81;21167;-65
2021/03/26 13:38:37;;;;;;;9.23;4.50;;;;;;;12.70;35.69;99409.98;1846022;77;21071;-65
2021/03/26 13:41:27;;;;;;;9.55;4.33;;;;;;;12.95;35.58;99405.86;1774272;80;21359;-65